createdAt,value
2023-01-17T00:01:09.730Z,98493.66
2023-01-17T00:06:49.789Z,98515.06
2023-01-17T00:12:11.565Z,98508.81
2023-01-17T00:17:33.327Z,98499.16
2023-01-17T00:23:13.616Z,98499.44
2023-01-17T00:28:37.980Z,98505.59
2023-01-17T00:33:59.680Z,98519.22
2023-01-17T00:39:21.369Z,98525.34
2023-01-17T00:45:01.749Z,98528.72
2023-01-17T00:50:42.264Z,98532.09
2023-01-17T00:56:22.716Z,98541.81
2023-01-17T01:02:03.176Z,98557.06
2023-01-17T01:07:43.788Z,98578.97
2023-01-17T01:13:23.873Z,98581.50
2023-01-17T01:19:04.461Z,98583.22
2023-01-17T01:24:45.171Z,98581.06
2023-01-17T01:30:26.117Z,98582.19
2023-01-17T01:35:54.050Z,98581.94
2023-01-17T01:41:16.349Z,98600.81
2023-01-17T01:46:41.926Z,98608.25
2023-01-17T01:52:06.995Z,98611.34
2023-01-17T01:57:34.682Z,98626.28
2023-01-17T02:03:00.511Z,98633.72
2023-01-17T02:08:24.224Z,98638.75
2023-01-17T02:13:46.052Z,98643.75
2023-01-17T02:19:35.073Z,98656.75
2023-01-17T02:25:22.893Z,98660.94
2023-01-17T02:30:54.659Z,98669.53
2023-01-17T02:36:22.665Z,98669.28
2023-01-17T02:41:49.804Z,98666.81
2023-01-17T02:47:26.346Z,98660.47
2023-01-17T02:53:09.364Z,98665.47
2023-01-17T02:58:49.651Z,98660.22
2023-01-17T03:04:41.396Z,98652.19
2023-01-17T03:10:05.710Z,98654.44
2023-01-17T03:15:27.715Z,98655.28
2023-01-17T03:20:49.543Z,98654.72
2023-01-17T03:26:11.337Z,98653.91
2023-01-17T03:31:33.119Z,98643.16
2023-01-17T03:36:54.773Z,98647.03
2023-01-17T03:42:16.645Z,98652.03
2023-01-17T03:47:38.389Z,98642.91
2023-01-17T03:53:00.208Z,98645.16
2023-01-17T03:58:21.965Z,98641.53
2023-01-17T04:03:43.683Z,98634.41
2023-01-17T04:09:05.426Z,98635.50
2023-01-17T04:14:27.123Z,98637.75
2023-01-17T04:19:49.039Z,98638.00
2023-01-17T04:25:10.781Z,98641.91
2023-01-17T04:30:33.406Z,98646.91
2023-01-17T04:35:55.677Z,98652.44
2023-01-17T04:41:17.351Z,98651.59
2023-01-17T04:46:39.049Z,98653.81
2023-01-17T04:52:00.767Z,98655.25
2023-01-17T04:57:22.552Z,98653.59
2023-01-17T05:02:44.432Z,98644.78
2023-01-17T05:08:06.160Z,98643.13
2023-01-17T05:13:27.825Z,98647.03
2023-01-17T05:18:53.632Z,98645.06
2023-01-17T05:24:15.459Z,98657.53
2023-01-17T05:29:37.243Z,98657.00
2023-01-17T05:34:58.926Z,98661.69
2023-01-17T05:40:23.422Z,98660.88
2023-01-17T05:45:48.657Z,98658.13
2023-01-17T05:51:10.354Z,98659.53
2023-01-17T05:56:32.231Z,98658.69
2023-01-17T06:01:54.485Z,98668.41
2023-01-17T06:07:16.436Z,98662.03
2023-01-17T06:12:38.283Z,98661.22
2023-01-17T06:18:11.425Z,98659.28
2023-01-17T06:23:33.163Z,98656.81
2023-01-17T06:28:54.863Z,98662.63
2023-01-17T06:34:16.816Z,98656.28
2023-01-17T06:39:38.488Z,98672.03
2023-01-17T06:45:00.220Z,98660.44
2023-01-17T06:50:22.098Z,98663.22
2023-01-17T06:55:43.905Z,98661.56
2023-01-17T07:01:08.050Z,98653.28
2023-01-17T07:06:29.936Z,98658.25
2023-01-17T07:11:52.838Z,98668.50
2023-01-17T07:17:14.562Z,98659.38
2023-01-17T07:22:37.878Z,98654.16
2023-01-17T07:28:00.309Z,98650.56
2023-01-17T07:33:22.183Z,98652.81
2023-01-17T07:38:46.850Z,98649.19
2023-01-17T07:44:13.531Z,98662.47
2023-01-17T07:49:35.330Z,98664.72
2023-01-17T07:54:57.099Z,98660.00
2023-01-17T08:00:19.629Z,98674.13
2023-01-17T08:05:43.154Z,98673.53
2023-01-17T08:11:04.973Z,98679.34
2023-01-17T08:16:28.751Z,98682.09
2023-01-17T08:21:50.581Z,98680.47
2023-01-17T08:27:12.295Z,98681.56
2023-01-17T08:32:34.709Z,98684.34
2023-01-17T08:37:56.595Z,98678.00
2023-01-17T08:43:19.295Z,98674.69
2023-01-17T08:48:41.040Z,98688.72
2023-01-17T08:54:02.748Z,98688.28
2023-01-17T08:59:24.501Z,98688.91
2023-01-17T09:04:50.056Z,98684.81
2023-01-17T09:10:12.549Z,98695.19
2023-01-17T09:15:34.277Z,98697.28
2023-01-17T09:20:59.245Z,98703.63
2023-01-17T09:26:30.632Z,98695.63
2023-01-17T09:31:52.378Z,98697.34
2023-01-17T09:37:14.107Z,98711.25
2023-01-17T09:42:41.105Z,98714.03
2023-01-17T09:48:09.095Z,98713.28
2023-01-17T09:53:37.584Z,98725.50
2023-01-17T09:59:32.757Z,98731.91
2023-01-17T10:05:18.307Z,98737.47
2023-01-17T10:10:42.325Z,98734.75
2023-01-17T10:16:09.882Z,98751.09
2023-01-17T10:21:49.696Z,98745.03
2023-01-17T10:27:38.396Z,98756.94
2023-01-17T10:33:04.472Z,98750.38
2023-01-17T10:38:33.835Z,98746.25
2023-01-17T10:43:55.869Z,98758.69
2023-01-17T10:49:23.827Z,98760.38
2023-01-17T10:54:45.508Z,98751.03
2023-01-17T11:00:51.811Z,98749.66
2023-01-17T11:06:19.667Z,98742.78
2023-01-17T11:11:49.312Z,98740.59
2023-01-17T11:17:12.643Z,98740.25
2023-01-17T11:22:35.719Z,98727.16
2023-01-17T11:28:01.968Z,98724.19
2023-01-17T11:33:33.428Z,98732.28
2023-01-17T11:39:27.598Z,98726.63
2023-01-17T11:44:50.608Z,98723.28
2023-01-17T11:50:26.483Z,98727.72
2023-01-17T11:56:28.440Z,98713.94
2023-01-17T12:02:02.578Z,98708.47
2023-01-17T12:07:59.781Z,98707.72
2023-01-17T12:14:03.402Z,98695.03
2023-01-17T12:19:39.068Z,98692.91
2023-01-17T12:25:38.066Z,98681.06
2023-01-17T12:31:14.785Z,98680.00
2023-01-17T12:36:49.665Z,98676.19
2023-01-17T12:42:24.223Z,98683.41
2023-01-17T12:47:54.616Z,98672.41
2023-01-17T12:53:23.194Z,98681.81
2023-01-17T12:58:50.585Z,98678.81
2023-01-17T13:04:58.385Z,98677.47
2023-01-17T13:10:23.302Z,98674.75
2023-01-17T13:15:45.037Z,98668.97
2023-01-17T13:21:09.430Z,98652.16
2023-01-17T13:26:52.676Z,98653.28
2023-01-17T13:32:49.678Z,98643.09
2023-01-17T13:38:44.632Z,98652.81
2023-01-17T13:44:22.069Z,98654.72
2023-01-17T13:49:50.772Z,98666.75
2023-01-17T13:55:45.708Z,98668.19
2023-01-17T14:01:11.444Z,98659.97
2023-01-17T14:06:36.302Z,98670.34
2023-01-17T14:12:26.272Z,98675.22
2023-01-17T14:17:56.042Z,98667.75
2023-01-17T14:23:29.661Z,98672.75
2023-01-17T14:28:52.091Z,98668.13
2023-01-17T14:34:14.276Z,98676.44
2023-01-17T14:39:47.640Z,98673.78
2023-01-17T14:45:13.657Z,98688.72
2023-01-17T14:50:37.939Z,98709.78
2023-01-17T14:56:14.137Z,98702.66
2023-01-17T15:01:36.510Z,98707.72
2023-01-17T15:07:00.076Z,98703.56
2023-01-17T15:12:21.850Z,98708.31
2023-01-17T15:17:43.502Z,98721.91
2023-01-17T15:23:05.888Z,98726.09
2023-01-17T15:28:29.206Z,98727.78
2023-01-17T15:33:55.818Z,98733.88
2023-01-17T15:39:33.540Z,98740.00
2023-01-17T15:44:59.930Z,98738.91
2023-01-17T15:50:23.823Z,98732.31
2023-01-17T15:55:48.097Z,98725.72
2023-01-17T16:01:17.509Z,98724.06
2023-01-17T16:06:48.297Z,98727.41
2023-01-17T16:12:10.347Z,98736.19
2023-01-17T16:17:32.800Z,98737.16
2023-01-17T16:22:54.514Z,98739.22
2023-01-17T16:28:16.443Z,98740.72
2023-01-17T16:33:39.524Z,98755.59
2023-01-17T16:39:01.312Z,98757.75
2023-01-17T16:44:23.046Z,98751.72
2023-01-17T16:49:44.744Z,98762.25
2023-01-17T16:55:10.283Z,98773.84
2023-01-17T17:00:32.067Z,98770.00
2023-01-17T17:05:59.816Z,98783.31
2023-01-17T17:11:25.579Z,98780.59
2023-01-17T17:16:47.709Z,98777.34
2023-01-17T17:22:09.455Z,98782.34
2023-01-17T17:27:31.360Z,98789.84
2023-01-17T17:32:53.012Z,98801.78
2023-01-17T17:38:14.700Z,98804.47
2023-01-17T17:43:38.152Z,98801.94
2023-01-17T17:49:00.289Z,98816.28
2023-01-17T17:54:22.397Z,98817.84
2023-01-17T17:59:44.098Z,98829.44
2023-01-17T18:05:06.408Z,98836.13
2023-01-17T18:10:28.532Z,98837.38
2023-01-17T18:15:50.317Z,98847.25
2023-01-17T18:21:15.081Z,98855.22
2023-01-17T18:26:39.547Z,98857.19
2023-01-17T18:32:01.244Z,98864.84
2023-01-17T18:37:23.317Z,98878.19
2023-01-17T18:42:44.975Z,98879.38
2023-01-17T18:48:06.680Z,98886.03
2023-01-17T18:53:33.844Z,98889.91
2023-01-17T18:58:55.787Z,98901.66
2023-01-17T19:04:18.995Z,98912.16
2023-01-17T19:09:40.706Z,98910.13
2023-01-17T19:15:02.503Z,98915.28
2023-01-17T19:20:24.578Z,98918.81
2023-01-17T19:25:46.728Z,98929.31
2023-01-17T19:31:10.331Z,98928.50
2023-01-17T19:36:34.716Z,98936.91
2023-01-17T19:41:56.420Z,98951.44
2023-01-17T19:47:18.243Z,98954.91
2023-01-17T19:52:40.103Z,98955.25
2023-01-17T19:58:01.824Z,98957.53
2023-01-17T20:03:23.547Z,98943.13
2023-01-17T20:08:45.481Z,98952.56
2023-01-17T20:14:07.195Z,98951.09
2023-01-17T20:19:29.070Z,98954.41
2023-01-17T20:24:50.815Z,98954.59
2023-01-17T20:30:20.132Z,98953.59
2023-01-17T20:35:42.326Z,98955.75
2023-01-17T20:41:03.978Z,98955.03
2023-01-17T20:46:27.829Z,98962.31
2023-01-17T20:51:50.090Z,98957.66
2023-01-17T20:57:11.862Z,98955.97
2023-01-17T21:02:33.689Z,98965.88
2023-01-17T21:07:55.733Z,98952.75
2023-01-17T21:13:17.645Z,98960.72
2023-01-17T21:18:39.322Z,98953.69
2023-01-17T21:24:01.148Z,98959.38
2023-01-17T21:29:28.777Z,98968.34
2023-01-17T21:34:52.411Z,98974.28
2023-01-17T21:40:14.753Z,98976.34
2023-01-17T21:45:37.858Z,98983.06
2023-01-17T21:51:07.734Z,98979.53
2023-01-17T21:56:48.352Z,98991.81
2023-01-17T22:02:10.825Z,98996.59
2023-01-17T22:07:32.633Z,99002.25
2023-01-17T22:12:54.324Z,98998.47
2023-01-17T22:18:16.221Z,99009.34
2023-01-17T22:23:39.144Z,99012.78
2023-01-17T22:29:02.428Z,99014.22
2023-01-17T22:34:24.277Z,99011.00
2023-01-17T22:39:46.061Z,99024.31
2023-01-17T22:45:08.249Z,99029.34
2023-01-17T22:50:29.946Z,99025.00
2023-01-17T22:56:06.063Z,99019.19
2023-01-17T23:01:32.980Z,99025.06
2023-01-17T23:06:54.729Z,99027.88
2023-01-17T23:12:16.407Z,99024.34
2023-01-17T23:17:56.485Z,99030.44
2023-01-17T23:23:18.148Z,99025.22
2023-01-17T23:28:39.855Z,99016.69
2023-01-17T23:34:01.560Z,99020.03
2023-01-17T23:39:23.247Z,99018.94
2023-01-17T23:44:45.019Z,99025.88
2023-01-17T23:50:07.201Z,99023.97
2023-01-17T23:55:28.880Z,99018.19
